Welcome to Des Moines Iowa Weather. I am an independent private personal weather station on the Northwest Side of Des Moines, Iowa. Just East of Windsor Heights and just West of Glendale . This site is also mobile friendly.

There are no active watches, warnings or advisories


Visit our other weather sites:

Historical Data

Weather Station Setup



Weather Underground History page Text

Daily Summary for December 3, 2017 Units:  English    Metric   Both
« Previous Day
Next Day »
Daily Weekly Monthly Yearly Custom
  High: Low: Average:
Temperature: 61.4 °F 34.1 °F 48.4 °F
Dew Point: 53.0 °F 25.0 °F 39.5 °F
Humidity: 84 % 58 % 72 %
Wind Speed: 6.0 mph 0.0 mph 1.6 mph
Wind Gust: 11.0 mph - -
Wind:- - South
Pressure: 30.13 in 29.64 in -
Precipitation: 0.00 in    
Historical Graphs
 
 
Tabular Data for December 3, 2017
Time Temperature Dew Point Pressure Wind Wind Speed Wind Gust Humidity Rainfall Rate (Hourly)
00:12 36.4 °F 25.0 °F 30.13 in Calm     64 % 0.00 in
00:27 36.2 °F 25.0 °F 30.13 in Calm     65 % 0.00 in
00:43 35.9 °F 25.0 °F 30.13 in Calm     66 % 0.00 in
00:57 35.5 °F 25.0 °F 30.13 in Calm     67 % 0.00 in
01:27 34.7 °F 26.0 °F 30.13 in Calm     70 % 0.00 in
01:44 34.3 °F 26.0 °F 30.13 in Calm     72 % 0.00 in
01:59 34.1 °F 26.0 °F 30.13 in Calm     73 % 0.00 in
02:14 34.1 °F 27.0 °F 30.12 in Calm     74 % 0.00 in
02:29 34.1 °F 26.0 °F 30.12 in Calm     73 % 0.00 in
02:52 34.2 °F 27.0 °F 30.13 in Calm     74 % 0.00 in
03:07 34.4 °F 27.0 °F 30.12 in Calm     75 % 0.00 in
03:45 34.4 °F 28.0 °F 30.11 in Calm     76 % 0.00 in
04:00 34.3 °F 27.0 °F 30.10 in Calm     76 % 0.00 in
04:15 34.1 °F 28.0 °F 30.10 in Calm     77 % 0.00 in
04:30 34.1 °F 28.0 °F 30.10 in Calm     78 % 0.00 in
04:45 34.1 °F 28.0 °F 30.10 in Calm     79 % 0.00 in
05:00 34.3 °F 29.0 °F 30.10 in Calm     80 % 0.00 in
05:15 34.4 °F 29.0 °F 30.09 in Calm   1.0 mph 80 % 0.00 in
05:30 34.5 °F 29.0 °F 30.10 in Calm     80 % 0.00 in
05:45 34.4 °F 29.0 °F 30.09 in Calm   2.0 mph 80 % 0.00 in
06:00 34.4 °F 29.0 °F 30.09 in Calm     81 % 0.00 in
06:15 34.3 °F 29.0 °F 30.09 in Calm     81 % 0.00 in
06:30 34.1 °F 29.0 °F 30.09 in Calm     82 % 0.00 in
06:45 34.4 °F 30.0 °F 30.09 in Calm   2.0 mph 83 % 0.00 in
07:00 34.7 °F 30.0 °F 30.09 in Calm   1.0 mph 83 % 0.00 in
07:15 35.1 °F 30.0 °F 30.09 in Calm   2.0 mph 83 % 0.00 in
07:30 35.3 °F 31.0 °F 30.09 in Calm   1.0 mph 83 % 0.00 in
07:45 35.3 °F 31.0 °F 30.09 in Calm   1.0 mph 83 % 0.00 in
08:00 35.4 °F 31.0 °F 30.09 in Calm     83 % 0.00 in
08:15 35.6 °F 31.0 °F 30.10 in Calm   1.0 mph 84 % 0.00 in
08:30 36.5 °F 32.0 °F 30.09 in NW 1.0 mph 3.0 mph 84 % 0.00 in
08:46 38.1 °F 34.0 °F 30.09 in Calm   3.0 mph 84 % 0.00 in
09:00 39.8 °F 35.0 °F 30.08 in WSW 3.0 mph 5.0 mph 82 % 0.00 in
09:06 40.3 °F 35.0 °F 30.08 in Calm   4.0 mph 81 % 0.00 in
09:21 41.6 °F 36.0 °F 30.08 in Calm   4.0 mph 79 % 0.00 in
09:36 42.6 °F 36.0 °F 30.08 in SW 1.0 mph 5.0 mph 77 % 0.00 in
09:44 43.2 °F 36.0 °F 30.07 in SW 1.0 mph 3.0 mph 76 % 0.00 in
10:00 44.6 °F 37.0 °F 30.07 in SW 1.0 mph 5.0 mph 76 % 0.00 in
10:14 46.1 °F 38.0 °F 30.07 in SW 1.0 mph 4.0 mph 73 % 0.00 in
10:29 47.4 °F 39.0 °F 30.06 in SW 2.0 mph 5.0 mph 72 % 0.00 in
10:45 48.9 °F 40.0 °F 30.05 in SSE 2.0 mph 5.0 mph 71 % 0.00 in
11:00 50.5 °F 41.0 °F 30.05 in Calm   5.0 mph 69 % 0.00 in
11:15 52.3 °F 41.0 °F 30.02 in SE 2.0 mph 5.0 mph 66 % 0.00 in
11:30 54.2 °F 42.0 °F 30.01 in SSW 4.0 mph 5.0 mph 63 % 0.00 in
11:45 54.9 °F 42.0 °F 30.00 in East 2.0 mph 6.0 mph 62 % 0.00 in
12:00 56.7 °F 43.0 °F 29.99 in ESE 1.0 mph 7.0 mph 60 % 0.00 in
12:15 57.5 °F 43.0 °F 29.98 in SE 3.0 mph 9.0 mph 59 % 0.00 in
12:30 58.2 °F 43.0 °F 29.97 in WSW 2.0 mph 6.0 mph 58 % 0.00 in
12:46 58.8 °F 44.0 °F 29.96 in SE 2.0 mph 5.0 mph 58 % 0.00 in
13:00 58.8 °F 44.0 °F 29.94 in South 4.0 mph 5.0 mph 59 % 0.00 in
13:15 59.5 °F 45.0 °F 29.93 in Calm   5.0 mph 59 % 0.00 in
13:30 59.9 °F 45.0 °F 29.92 in SSE 2.0 mph 6.0 mph 59 % 0.00 in
13:45 60.2 °F 45.0 °F 29.91 in SSE 3.0 mph 6.0 mph 58 % 0.00 in
14:00 60.3 °F 45.0 °F 29.90 in South 2.0 mph 7.0 mph 58 % 0.00 in
14:16 60.5 °F 45.0 °F 29.89 in SSE 5.0 mph 6.0 mph 58 % 0.00 in
14:30 61.1 °F 46.0 °F 29.87 in South 2.0 mph 8.0 mph 58 % 0.00 in
14:46 61.3 °F 46.0 °F 29.87 in South 4.0 mph 7.0 mph 58 % 0.00 in
15:00 61.3 °F 47.0 °F 29.86 in SSE 5.0 mph 7.0 mph 59 % 0.00 in
15:31 61.4 °F 47.0 °F 29.84 in Calm   8.0 mph 59 % 0.00 in
15:46 61.1 °F 47.0 °F 29.83 in SSE 5.0 mph 7.0 mph 60 % 0.00 in
16:01 60.6 °F 47.0 °F 29.82 in SSE 2.0 mph 9.0 mph 62 % 0.00 in
16:16 60.0 °F 47.0 °F 29.82 in South 3.0 mph 9.0 mph 63 % 0.00 in
16:31 59.5 °F 47.0 °F 29.81 in Calm   7.0 mph 64 % 0.00 in
16:46 58.7 °F 47.0 °F 29.81 in SSE 5.0 mph 7.0 mph 65 % 0.00 in
17:01 58.3 °F 47.0 °F 29.80 in Calm   5.0 mph 66 % 0.00 in
17:10 58.0 °F 47.0 °F 29.80 in South 2.0 mph 8.0 mph 67 % 0.00 in
17:25 57.6 °F 47.0 °F 29.80 in SSE 2.0 mph 10.0 mph 68 % 0.00 in
17:40 57.2 °F 47.0 °F 29.80 in SSE 4.0 mph 5.0 mph 68 % 0.00 in
17:55 57.1 °F 47.0 °F 29.79 in SSE 2.0 mph 8.0 mph 68 % 0.00 in
18:10 56.7 °F 47.0 °F 29.79 in SSE 4.0 mph 8.0 mph 69 % 0.00 in
18:25 56.8 °F 47.0 °F 29.78 in SE 2.0 mph 7.0 mph 69 % 0.00 in
18:40 56.7 °F 47.0 °F 29.78 in SE 3.0 mph 10.0 mph 69 % 0.00 in
18:55 56.5 °F 47.0 °F 29.77 in South 2.0 mph 9.0 mph 70 % 0.00 in
19:10 56.2 °F 47.0 °F 29.77 in SSE 4.0 mph 7.0 mph 71 % 0.00 in
19:25 55.9 °F 47.0 °F 29.76 in South 4.0 mph 7.0 mph 72 % 0.00 in
19:40 55.7 °F 47.0 °F 29.75 in SE 2.0 mph 7.0 mph 73 % 0.00 in
19:55 55.7 °F 48.0 °F 29.74 in ESE 2.0 mph 8.0 mph 74 % 0.00 in
20:10 55.8 °F 48.0 °F 29.73 in SSE 4.0 mph 8.0 mph 75 % 0.00 in
20:26 56.0 °F 49.0 °F 29.73 in SSE 2.0 mph 7.0 mph 76 % 0.00 in
20:40 56.2 °F 49.0 °F 29.72 in Calm   6.0 mph 77 % 0.00 in
20:55 56.6 °F 50.0 °F 29.71 in SSE 5.0 mph 10.0 mph 78 % 0.00 in
21:28 57.0 °F 50.0 °F 29.70 in SSE 3.0 mph 11.0 mph 78 % 0.00 in
21:40 56.9 °F 50.0 °F 29.69 in South 2.0 mph 6.0 mph 78 % 0.00 in
21:55 56.8 °F 50.0 °F 29.68 in SE 6.0 mph 7.0 mph 79 % 0.00 in
22:10 56.7 °F 50.0 °F 29.68 in SE 4.0 mph 7.0 mph 79 % 0.00 in
22:25 56.8 °F 51.0 °F 29.67 in Calm   7.0 mph 80 % 0.00 in
22:40 56.9 °F 51.0 °F 29.66 in SSW 3.0 mph 6.0 mph 80 % 0.00 in
22:55 57.2 °F 51.0 °F 29.65 in SSE 2.0 mph 7.0 mph 80 % 0.00 in
23:10 57.5 °F 52.0 °F 29.65 in ESE 1.0 mph 6.0 mph 81 % 0.00 in
23:26 57.8 °F 52.0 °F 29.65 in WSW 3.0 mph 7.0 mph 80 % 0.00 in
23:40 58.6 °F 52.0 °F 29.64 in South 2.0 mph 8.0 mph 80 % 0.00 in
23:56 59.3 °F 53.0 °F 29.64 in SW 4.0 mph 7.0 mph 79 % 0.00 in
Des Moines Weather and Climate
Compliments of Weather Underground - 3 mb

Script developed by  Jim McMurry - jmcmurry@mwt.net Adapted for the template by  Wim van der Kuil - Leuven-Template.eu

You find our weather info also at:

Weather Underground

Equipment we use:

Weather-station
Davis VP2 Plus

Weather-program
Davis Weatherlink.Com

Weather-server
iMac (Retina 4K, 21.5-inch, Late 2015)

Provider
Hostmonster.com

Davis VP2 Plus

Davis Weatherlink.Com

iMac (Retina 4K, 21.5-inch, Late 2015)

Hostmonster.com